sensor_id;sensor_type;location;lat;lon;timestamp;P1;durP1;ratioP1;P2;durP2;ratioP2
83487;SDS011;73424;49.994;8.184;2024-02-26T00:01:47;2.83;;;1.88;;
83487;SDS011;73424;49.994;8.184;2024-02-26T00:04:13;2.50;;;1.80;;
83487;SDS011;73424;49.994;8.184;2024-02-26T00:06:39;2.50;;;2.03;;
83487;SDS011;73424;49.994;8.184;2024-02-26T00:09:07;2.90;;;1.95;;
83487;SDS011;73424;49.994;8.184;2024-02-26T00:11:33;3.28;;;2.33;;
83487;SDS011;73424;49.994;8.184;2024-02-26T00:14:01;2.17;;;1.77;;
83487;SDS011;73424;49.994;8.184;2024-02-26T00:16:26;2.05;;;1.80;;
83487;SDS011;73424;49.994;8.184;2024-02-26T00:18:51;2.58;;;2.08;;
83487;SDS011;73424;49.994;8.184;2024-02-26T00:21:17;2.50;;;2.05;;
83487;SDS011;73424;49.994;8.184;2024-02-26T00:23:42;2.63;;;1.60;;
83487;SDS011;73424;49.994;8.184;2024-02-26T00:26:07;3.27;;;1.97;;
83487;SDS011;73424;49.994;8.184;2024-02-26T00:28:33;2.55;;;2.22;;
83487;SDS011;73424;49.994;8.184;2024-02-26T00:30:58;2.22;;;1.40;;
83487;SDS011;73424;49.994;8.184;2024-02-26T00:33:24;3.13;;;2.60;;
83487;SDS011;73424;49.994;8.184;2024-02-26T00:35:49;2.67;;;2.08;;
83487;SDS011;73424;49.994;8.184;2024-02-26T00:38:14;3.23;;;1.93;;
83487;SDS011;73424;49.994;8.184;2024-02-26T00:40:40;3.80;;;1.77;;
83487;SDS011;73424;49.994;8.184;2024-02-26T00:43:06;2.33;;;1.87;;
83487;SDS011;73424;49.994;8.184;2024-02-26T00:45:34;3.03;;;2.25;;
83487;SDS011;73424;49.994;8.184;2024-02-26T00:47:59;1.77;;;0.93;;
83487;SDS011;73424;49.994;8.184;2024-02-26T00:50:33;2.90;;;1.90;;
83487;SDS011;73424;49.994;8.184;2024-02-26T00:52:59;2.85;;;2.08;;
83487;SDS011;73424;49.994;8.184;2024-02-26T00:55:25;2.85;;;1.48;;
83487;SDS011;73424;49.994;8.184;2024-02-26T00:57:51;1.90;;;1.23;;
83487;SDS011;73424;49.994;8.184;2024-02-26T01:00:16;3.55;;;2.25;;
83487;SDS011;73424;49.994;8.184;2024-02-26T01:02:42;2.50;;;2.03;;
83487;SDS011;73424;49.994;8.184;2024-02-26T01:05:08;2.47;;;1.88;;
83487;SDS011;73424;49.994;8.184;2024-02-26T01:07:36;2.47;;;2.15;;
83487;SDS011;73424;49.994;8.184;2024-02-26T01:10:02;2.97;;;1.52;;
83487;SDS011;73424;49.994;8.184;2024-02-26T01:12:28;2.70;;;1.83;;
83487;SDS011;73424;49.994;8.184;2024-02-26T01:14:53;3.55;;;1.20;;
83487;SDS011;73424;49.994;8.184;2024-02-26T01:17:18;2.03;;;1.50;;
83487;SDS011;73424;49.994;8.184;2024-02-26T01:19:44;5.60;;;1.73;;
83487;SDS011;73424;49.994;8.184;2024-02-26T01:22:09;3.00;;;1.77;;
83487;SDS011;73424;49.994;8.184;2024-02-26T01:24:34;2.30;;;1.65;;
83487;SDS011;73424;49.994;8.184;2024-02-26T01:27:00;2.73;;;1.87;;
83487;SDS011;73424;49.994;8.184;2024-02-26T01:29:25;2.83;;;1.60;;
83487;SDS011;73424;49.994;8.184;2024-02-26T01:31:50;3.28;;;1.80;;
83487;SDS011;73424;49.994;8.184;2024-02-26T01:34:16;2.10;;;1.77;;
83487;SDS011;73424;49.994;8.184;2024-02-26T01:36:43;2.10;;;1.83;;
83487;SDS011;73424;49.994;8.184;2024-02-26T01:39:08;2.25;;;1.65;;
83487;SDS011;73424;49.994;8.184;2024-02-26T01:41:37;1.75;;;1.52;;
83487;SDS011;73424;49.994;8.184;2024-02-26T01:44:06;3.47;;;1.83;;
83487;SDS011;73424;49.994;8.184;2024-02-26T01:46:31;2.60;;;2.15;;
83487;SDS011;73424;49.994;8.184;2024-02-26T01:48:59;1.98;;;1.55;;
83487;SDS011;73424;49.994;8.184;2024-02-26T01:51:26;2.25;;;2.05;;
83487;SDS011;73424;49.994;8.184;2024-02-26T01:53:52;2.50;;;1.90;;
83487;SDS011;73424;49.994;8.184;2024-02-26T01:56:18;2.90;;;2.05;;
83487;SDS011;73424;49.994;8.184;2024-02-26T01:58:44;2.38;;;1.77;;
83487;SDS011;73424;49.994;8.184;2024-02-26T02:01:10;2.30;;;1.65;;
83487;SDS011;73424;49.994;8.184;2024-02-26T02:03:37;2.97;;;2.22;;
83487;SDS011;73424;49.994;8.184;2024-02-26T02:06:03;2.70;;;1.98;;
83487;SDS011;73424;49.994;8.184;2024-02-26T02:08:29;2.95;;;1.98;;
83487;SDS011;73424;49.994;8.184;2024-02-26T02:10:54;2.67;;;1.52;;
83487;SDS011;73424;49.994;8.184;2024-02-26T02:13:20;4.03;;;2.22;;
83487;SDS011;73424;49.994;8.184;2024-02-26T02:15:45;3.97;;;2.43;;
83487;SDS011;73424;49.994;8.184;2024-02-26T02:18:11;2.85;;;1.95;;
83487;SDS011;73424;49.994;8.184;2024-02-26T02:20:36;2.83;;;1.98;;
83487;SDS011;73424;49.994;8.184;2024-02-26T02:23:02;3.57;;;2.37;;
83487;SDS011;73424;49.994;8.184;2024-02-26T02:25:27;2.60;;;1.98;;
83487;SDS011;73424;49.994;8.184;2024-02-26T02:27:53;4.13;;;2.67;;
83487;SDS011;73424;49.994;8.184;2024-02-26T02:30:19;2.45;;;2.25;;
83487;SDS011;73424;49.994;8.184;2024-02-26T02:32:45;2.35;;;1.98;;
83487;SDS011;73424;49.994;8.184;2024-02-26T02:35:11;2.45;;;1.95;;
83487;SDS011;73424;49.994;8.184;2024-02-26T02:37:36;2.95;;;1.42;;
83487;SDS011;73424;49.994;8.184;2024-02-26T02:40:02;3.58;;;2.53;;
83487;SDS011;73424;49.994;8.184;2024-02-26T02:42:28;3.28;;;2.03;;
83487;SDS011;73424;49.994;8.184;2024-02-26T02:44:53;2.63;;;2.03;;
83487;SDS011;73424;49.994;8.184;2024-02-26T02:47:19;4.77;;;2.27;;
83487;SDS011;73424;49.994;8.184;2024-02-26T02:49:44;3.28;;;2.03;;
83487;SDS011;73424;49.994;8.184;2024-02-26T02:52:09;2.53;;;1.70;;
83487;SDS011;73424;49.994;8.184;2024-02-26T02:54:34;3.23;;;2.90;;
83487;SDS011;73424;49.994;8.184;2024-02-26T02:57:01;3.53;;;2.95;;
83487;SDS011;73424;49.994;8.184;2024-02-26T02:59:28;2.88;;;1.88;;
83487;SDS011;73424;49.994;8.184;2024-02-26T03:01:53;3.92;;;1.95;;
83487;SDS011;73424;49.994;8.184;2024-02-26T03:04:18;3.27;;;2.37;;
83487;SDS011;73424;49.994;8.184;2024-02-26T03:06:44;2.38;;;1.27;;
83487;SDS011;73424;49.994;8.184;2024-02-26T03:09:09;2.15;;;1.60;;
83487;SDS011;73424;49.994;8.184;2024-02-26T03:11:34;3.60;;;2.57;;
83487;SDS011;73424;49.994;8.184;2024-02-26T03:14:00;2.95;;;2.65;;
83487;SDS011;73424;49.994;8.184;2024-02-26T03:16:25;3.33;;;2.35;;
83487;SDS011;73424;49.994;8.184;2024-02-26T03:18:50;2.07;;;1.87;;
83487;SDS011;73424;49.994;8.184;2024-02-26T03:21:15;2.13;;;1.57;;
83487;SDS011;73424;49.994;8.184;2024-02-26T03:23:41;2.77;;;1.77;;
83487;SDS011;73424;49.994;8.184;2024-02-26T03:26:06;3.03;;;1.23;;
83487;SDS011;73424;49.994;8.184;2024-02-26T03:28:31;2.22;;;1.30;;
83487;SDS011;73424;49.994;8.184;2024-02-26T03:31:00;3.20;;;2.40;;
83487;SDS011;73424;49.994;8.184;2024-02-26T03:33:27;3.45;;;3.03;;
83487;SDS011;73424;49.994;8.184;2024-02-26T03:35:52;2.85;;;2.38;;
83487;SDS011;73424;49.994;8.184;2024-02-26T03:38:18;4.97;;;2.33;;
83487;SDS011;73424;49.994;8.184;2024-02-26T03:40:43;4.40;;;2.20;;
83487;SDS011;73424;49.994;8.184;2024-02-26T03:43:08;3.33;;;2.00;;
83487;SDS011;73424;49.994;8.184;2024-02-26T03:45:34;3.35;;;1.85;;
83487;SDS011;73424;49.994;8.184;2024-02-26T03:47:59;4.38;;;2.10;;
83487;SDS011;73424;49.994;8.184;2024-02-26T03:50:24;2.38;;;1.33;;
83487;SDS011;73424;49.994;8.184;2024-02-26T03:52:50;2.63;;;2.17;;
83487;SDS011;73424;49.994;8.184;2024-02-26T03:55:15;3.60;;;2.72;;
83487;SDS011;73424;49.994;8.184;2024-02-26T03:57:43;5.18;;;2.28;;
83487;SDS011;73424;49.994;8.184;2024-02-26T04:00:09;4.33;;;2.63;;
83487;SDS011;73424;49.994;8.184;2024-02-26T04:02:34;4.97;;;2.47;;
83487;SDS011;73424;49.994;8.184;2024-02-26T04:05:00;3.87;;;3.37;;
83487;SDS011;73424;49.994;8.184;2024-02-26T04:07:25;3.83;;;2.80;;
83487;SDS011;73424;49.994;8.184;2024-02-26T04:09:51;5.68;;;2.33;;
83487;SDS011;73424;49.994;8.184;2024-02-26T04:12:16;4.73;;;2.30;;
83487;SDS011;73424;49.994;8.184;2024-02-26T04:14:41;2.47;;;1.25;;
83487;SDS011;73424;49.994;8.184;2024-02-26T04:17:07;4.63;;;2.53;;
83487;SDS011;73424;49.994;8.184;2024-02-26T04:19:32;4.63;;;2.83;;
83487;SDS011;73424;49.994;8.184;2024-02-26T04:21:57;3.73;;;2.40;;
83487;SDS011;73424;49.994;8.184;2024-02-26T04:24:23;7.03;;;2.80;;
83487;SDS011;73424;49.994;8.184;2024-02-26T04:26:48;5.07;;;2.78;;
83487;SDS011;73424;49.994;8.184;2024-02-26T04:29:15;3.63;;;3.13;;
83487;SDS011;73424;49.994;8.184;2024-02-26T04:31:40;5.85;;;2.78;;
83487;SDS011;73424;49.994;8.184;2024-02-26T04:34:07;6.43;;;3.00;;
83487;SDS011;73424;49.994;8.184;2024-02-26T04:36:32;3.95;;;2.55;;
83487;SDS011;73424;49.994;8.184;2024-02-26T04:38:58;4.33;;;2.93;;
83487;SDS011;73424;49.994;8.184;2024-02-26T04:41:23;3.53;;;3.20;;
83487;SDS011;73424;49.994;8.184;2024-02-26T04:43:48;4.93;;;3.10;;
83487;SDS011;73424;49.994;8.184;2024-02-26T04:46:14;4.43;;;3.43;;
83487;SDS011;73424;49.994;8.184;2024-02-26T04:48:39;3.58;;;2.70;;
83487;SDS011;73424;49.994;8.184;2024-02-26T04:51:06;3.40;;;2.90;;
83487;SDS011;73424;49.994;8.184;2024-02-26T04:53:31;5.20;;;2.95;;
83487;SDS011;73424;49.994;8.184;2024-02-26T04:55:57;4.07;;;3.03;;
83487;SDS011;73424;49.994;8.184;2024-02-26T04:58:22;3.50;;;3.15;;
83487;SDS011;73424;49.994;8.184;2024-02-26T05:00:48;5.30;;;3.55;;
83487;SDS011;73424;49.994;8.184;2024-02-26T05:03:13;5.45;;;3.40;;
83487;SDS011;73424;49.994;8.184;2024-02-26T05:05:40;7.75;;;3.70;;
83487;SDS011;73424;49.994;8.184;2024-02-26T05:08:06;5.22;;;3.08;;
83487;SDS011;73424;49.994;8.184;2024-02-26T05:10:32;4.65;;;2.95;;
83487;SDS011;73424;49.994;8.184;2024-02-26T05:12:58;5.03;;;3.22;;
83487;SDS011;73424;49.994;8.184;2024-02-26T05:15:23;5.07;;;3.78;;
83487;SDS011;73424;49.994;8.184;2024-02-26T05:17:48;3.22;;;2.92;;
83487;SDS011;73424;49.994;8.184;2024-02-26T05:20:14;5.30;;;2.87;;
83487;SDS011;73424;49.994;8.184;2024-02-26T05:22:39;4.40;;;3.35;;
83487;SDS011;73424;49.994;8.184;2024-02-26T05:25:04;4.22;;;2.78;;
83487;SDS011;73424;49.994;8.184;2024-02-26T05:27:30;5.47;;;3.63;;
83487;SDS011;73424;49.994;8.184;2024-02-26T05:29:55;5.77;;;3.83;;
83487;SDS011;73424;49.994;8.184;2024-02-26T05:32:21;6.03;;;3.30;;
83487;SDS011;73424;49.994;8.184;2024-02-26T05:34:47;5.18;;;4.07;;
83487;SDS011;73424;49.994;8.184;2024-02-26T05:37:12;6.47;;;4.55;;
83487;SDS011;73424;49.994;8.184;2024-02-26T05:39:37;4.80;;;3.60;;
83487;SDS011;73424;49.994;8.184;2024-02-26T05:42:04;5.78;;;3.72;;
83487;SDS011;73424;49.994;8.184;2024-02-26T05:44:29;6.30;;;3.63;;
83487;SDS011;73424;49.994;8.184;2024-02-26T05:46:55;6.85;;;3.92;;
83487;SDS011;73424;49.994;8.184;2024-02-26T05:49:21;4.45;;;3.58;;
83487;SDS011;73424;49.994;8.184;2024-02-26T05:51:49;5.15;;;3.65;;
83487;SDS011;73424;49.994;8.184;2024-02-26T05:54:15;5.85;;;3.80;;
83487;SDS011;73424;49.994;8.184;2024-02-26T05:56:40;7.23;;;3.77;;
83487;SDS011;73424;49.994;8.184;2024-02-26T05:59:05;7.17;;;4.43;;
83487;SDS011;73424;49.994;8.184;2024-02-26T06:01:30;5.70;;;4.93;;
83487;SDS011;73424;49.994;8.184;2024-02-26T06:04:05;6.68;;;4.38;;
83487;SDS011;73424;49.994;8.184;2024-02-26T06:06:30;6.55;;;3.92;;
83487;SDS011;73424;49.994;8.184;2024-02-26T06:08:55;5.55;;;4.18;;
83487;SDS011;73424;49.994;8.184;2024-02-26T06:11:21;6.13;;;4.90;;
83487;SDS011;73424;49.994;8.184;2024-02-26T06:13:47;7.03;;;4.68;;
83487;SDS011;73424;49.994;8.184;2024-02-26T06:16:13;7.50;;;4.20;;
83487;SDS011;73424;49.994;8.184;2024-02-26T06:18:38;9.38;;;5.95;;
83487;SDS011;73424;49.994;8.184;2024-02-26T06:21:03;7.05;;;4.25;;
83487;SDS011;73424;49.994;8.184;2024-02-26T06:23:29;6.43;;;4.32;;
83487;SDS011;73424;49.994;8.184;2024-02-26T06:25:54;4.80;;;4.25;;
83487;SDS011;73424;49.994;8.184;2024-02-26T06:28:20;4.78;;;3.72;;
83487;SDS011;73424;49.994;8.184;2024-02-26T06:30:46;5.63;;;4.53;;
83487;SDS011;73424;49.994;8.184;2024-02-26T06:33:11;6.07;;;4.43;;
83487;SDS011;73424;49.994;8.184;2024-02-26T06:35:37;4.63;;;4.05;;
83487;SDS011;73424;49.994;8.184;2024-02-26T06:38:03;6.22;;;5.22;;
83487;SDS011;73424;49.994;8.184;2024-02-26T06:40:29;5.70;;;4.40;;
83487;SDS011;73424;49.994;8.184;2024-02-26T06:42:54;5.25;;;4.32;;
83487;SDS011;73424;49.994;8.184;2024-02-26T06:45:19;6.38;;;4.80;;
83487;SDS011;73424;49.994;8.184;2024-02-26T06:47:45;5.97;;;3.78;;
83487;SDS011;73424;49.994;8.184;2024-02-26T06:50:11;6.30;;;4.10;;
83487;SDS011;73424;49.994;8.184;2024-02-26T06:52:40;7.00;;;4.78;;
83487;SDS011;73424;49.994;8.184;2024-02-26T06:55:11;8.23;;;6.20;;
83487;SDS011;73424;49.994;8.184;2024-02-26T06:57:38;7.93;;;5.15;;
83487;SDS011;73424;49.994;8.184;2024-02-26T07:00:04;6.43;;;4.75;;
83487;SDS011;73424;49.994;8.184;2024-02-26T07:02:30;7.25;;;5.28;;
83487;SDS011;73424;49.994;8.184;2024-02-26T07:04:55;6.80;;;4.72;;
83487;SDS011;73424;49.994;8.184;2024-02-26T07:07:23;6.75;;;5.55;;
83487;SDS011;73424;49.994;8.184;2024-02-26T07:09:48;10.13;;;5.68;;
83487;SDS011;73424;49.994;8.184;2024-02-26T07:12:14;6.40;;;4.78;;
83487;SDS011;73424;49.994;8.184;2024-02-26T07:14:40;6.47;;;5.35;;
83487;SDS011;73424;49.994;8.184;2024-02-26T07:17:06;6.83;;;4.93;;
83487;SDS011;73424;49.994;8.184;2024-02-26T07:19:31;6.80;;;4.67;;
83487;SDS011;73424;49.994;8.184;2024-02-26T07:21:57;8.73;;;6.32;;
83487;SDS011;73424;49.994;8.184;2024-02-26T07:24:23;7.43;;;6.15;;
83487;SDS011;73424;49.994;8.184;2024-02-26T07:26:48;6.63;;;4.55;;
83487;SDS011;73424;49.994;8.184;2024-02-26T07:29:15;10.00;;;5.78;;
83487;SDS011;73424;49.994;8.184;2024-02-26T07:31:40;10.80;;;4.57;;
83487;SDS011;73424;49.994;8.184;2024-02-26T07:34:05;8.57;;;5.70;;
83487;SDS011;73424;49.994;8.184;2024-02-26T07:36:30;7.53;;;5.00;;
83487;SDS011;73424;49.994;8.184;2024-02-26T07:38:56;9.93;;;5.90;;
83487;SDS011;73424;49.994;8.184;2024-02-26T07:41:21;8.65;;;6.85;;
83487;SDS011;73424;49.994;8.184;2024-02-26T07:43:46;8.85;;;5.93;;
83487;SDS011;73424;49.994;8.184;2024-02-26T07:46:12;9.40;;;5.43;;
83487;SDS011;73424;49.994;8.184;2024-02-26T07:48:37;9.23;;;5.65;;
83487;SDS011;73424;49.994;8.184;2024-02-26T07:51:03;10.10;;;6.70;;
83487;SDS011;73424;49.994;8.184;2024-02-26T07:53:29;9.68;;;6.85;;
83487;SDS011;73424;49.994;8.184;2024-02-26T07:55:55;8.35;;;5.95;;
83487;SDS011;73424;49.994;8.184;2024-02-26T07:58:21;8.48;;;6.25;;
83487;SDS011;73424;49.994;8.184;2024-02-26T08:00:47;9.63;;;6.03;;
83487;SDS011;73424;49.994;8.184;2024-02-26T08:03:12;8.63;;;6.10;;
83487;SDS011;73424;49.994;8.184;2024-02-26T08:05:40;11.05;;;8.20;;
83487;SDS011;73424;49.994;8.184;2024-02-26T08:08:07;8.02;;;6.07;;
83487;SDS011;73424;49.994;8.184;2024-02-26T08:10:33;8.55;;;5.68;;
83487;SDS011;73424;49.994;8.184;2024-02-26T08:12:58;8.07;;;5.47;;
83487;SDS011;73424;49.994;8.184;2024-02-26T08:15:30;8.43;;;6.38;;
83487;SDS011;73424;49.994;8.184;2024-02-26T08:17:56;8.20;;;5.57;;
83487;SDS011;73424;49.994;8.184;2024-02-26T08:20:21;15.23;;;7.20;;
83487;SDS011;73424;49.994;8.184;2024-02-26T08:22:47;9.00;;;7.38;;
83487;SDS011;73424;49.994;8.184;2024-02-26T08:25:12;8.43;;;5.93;;
83487;SDS011;73424;49.994;8.184;2024-02-26T08:27:38;8.57;;;5.53;;
83487;SDS011;73424;49.994;8.184;2024-02-26T08:30:03;8.70;;;6.85;;
83487;SDS011;73424;49.994;8.184;2024-02-26T08:32:29;9.32;;;6.55;;
83487;SDS011;73424;49.994;8.184;2024-02-26T08:34:54;8.43;;;5.80;;
83487;SDS011;73424;49.994;8.184;2024-02-26T08:37:20;6.75;;;5.68;;
83487;SDS011;73424;49.994;8.184;2024-02-26T08:39:45;8.73;;;6.00;;
83487;SDS011;73424;49.994;8.184;2024-02-26T08:42:10;8.40;;;6.20;;
83487;SDS011;73424;49.994;8.184;2024-02-26T08:44:36;8.57;;;6.00;;
83487;SDS011;73424;49.994;8.184;2024-02-26T08:47:01;8.90;;;5.73;;
83487;SDS011;73424;49.994;8.184;2024-02-26T08:49:27;8.18;;;5.72;;
83487;SDS011;73424;49.994;8.184;2024-02-26T08:51:52;8.55;;;6.00;;
83487;SDS011;73424;49.994;8.184;2024-02-26T08:54:18;7.43;;;5.35;;
83487;SDS011;73424;49.994;8.184;2024-02-26T08:56:43;9.68;;;6.07;;
83487;SDS011;73424;49.994;8.184;2024-02-26T08:59:09;9.50;;;7.23;;
83487;SDS011;73424;49.994;8.184;2024-02-26T09:01:34;7.60;;;5.67;;
83487;SDS011;73424;49.994;8.184;2024-02-26T09:03:59;8.25;;;6.45;;
83487;SDS011;73424;49.994;8.184;2024-02-26T09:06:24;11.32;;;6.68;;
83487;SDS011;73424;49.994;8.184;2024-02-26T09:08:50;8.80;;;5.78;;
83487;SDS011;73424;49.994;8.184;2024-02-26T09:11:15;11.18;;;7.07;;
83487;SDS011;73424;49.994;8.184;2024-02-26T09:13:41;7.95;;;5.90;;
83487;SDS011;73424;49.994;8.184;2024-02-26T09:16:07;7.20;;;5.85;;
83487;SDS011;73424;49.994;8.184;2024-02-26T09:18:32;9.10;;;5.80;;
83487;SDS011;73424;49.994;8.184;2024-02-26T09:20:57;6.70;;;5.00;;
83487;SDS011;73424;49.994;8.184;2024-02-26T09:23:23;9.98;;;5.32;;
83487;SDS011;73424;49.994;8.184;2024-02-26T09:25:48;9.63;;;5.43;;
83487;SDS011;73424;49.994;8.184;2024-02-26T09:28:14;8.70;;;5.50;;
83487;SDS011;73424;49.994;8.184;2024-02-26T09:30:42;8.65;;;5.57;;
83487;SDS011;73424;49.994;8.184;2024-02-26T09:33:07;9.52;;;6.18;;
83487;SDS011;73424;49.994;8.184;2024-02-26T09:35:33;10.65;;;6.68;;
83487;SDS011;73424;49.994;8.184;2024-02-26T09:37:59;7.57;;;4.35;;
83487;SDS011;73424;49.994;8.184;2024-02-26T09:40:24;8.75;;;6.28;;
83487;SDS011;73424;49.994;8.184;2024-02-26T09:42:49;6.07;;;4.65;;
83487;SDS011;73424;49.994;8.184;2024-02-26T09:45:24;7.43;;;5.18;;
83487;SDS011;73424;49.994;8.184;2024-02-26T09:47:50;8.30;;;5.80;;
83487;SDS011;73424;49.994;8.184;2024-02-26T09:50:16;6.72;;;4.55;;
83487;SDS011;73424;49.994;8.184;2024-02-26T09:52:43;7.18;;;5.45;;
83487;SDS011;73424;49.994;8.184;2024-02-26T09:55:08;6.38;;;5.22;;
83487;SDS011;73424;49.994;8.184;2024-02-26T09:57:36;7.85;;;4.47;;
83487;SDS011;73424;49.994;8.184;2024-02-26T10:00:02;6.80;;;5.53;;
83487;SDS011;73424;49.994;8.184;2024-02-26T10:02:32;8.23;;;5.25;;
83487;SDS011;73424;49.994;8.184;2024-02-26T10:04:59;7.82;;;5.47;;
83487;SDS011;73424;49.994;8.184;2024-02-26T10:07:30;8.38;;;5.90;;
83487;SDS011;73424;49.994;8.184;2024-02-26T10:09:56;6.05;;;5.35;;
83487;SDS011;73424;49.994;8.184;2024-02-26T10:12:22;8.80;;;5.32;;
83487;SDS011;73424;49.994;8.184;2024-02-26T10:14:50;5.63;;;4.57;;
83487;SDS011;73424;49.994;8.184;2024-02-26T10:17:19;8.82;;;5.50;;
83487;SDS011;73424;49.994;8.184;2024-02-26T10:19:45;7.53;;;5.78;;
83487;SDS011;73424;49.994;8.184;2024-02-26T10:22:10;9.10;;;6.00;;
83487;SDS011;73424;49.994;8.184;2024-02-26T10:24:36;6.33;;;4.63;;
83487;SDS011;73424;49.994;8.184;2024-02-26T10:27:02;9.15;;;5.85;;
83487;SDS011;73424;49.994;8.184;2024-02-26T10:29:27;8.43;;;5.90;;
83487;SDS011;73424;49.994;8.184;2024-02-26T10:31:53;6.38;;;5.25;;
83487;SDS011;73424;49.994;8.184;2024-02-26T10:34:19;9.38;;;6.03;;
83487;SDS011;73424;49.994;8.184;2024-02-26T10:36:45;9.43;;;6.20;;
83487;SDS011;73424;49.994;8.184;2024-02-26T10:39:13;8.30;;;5.70;;
83487;SDS011;73424;49.994;8.184;2024-02-26T10:41:42;6.47;;;5.25;;
83487;SDS011;73424;49.994;8.184;2024-02-26T10:46:40;9.65;;;5.88;;
83487;SDS011;73424;49.994;8.184;2024-02-26T10:49:07;7.15;;;5.97;;
83487;SDS011;73424;49.994;8.184;2024-02-26T10:51:39;9.77;;;6.75;;
83487;SDS011;73424;49.994;8.184;2024-02-26T10:54:08;8.93;;;5.47;;
83487;SDS011;73424;49.994;8.184;2024-02-26T10:56:36;7.05;;;6.25;;
83487;SDS011;73424;49.994;8.184;2024-02-26T10:59:08;9.38;;;6.38;;
83487;SDS011;73424;49.994;8.184;2024-02-26T11:01:35;7.60;;;6.57;;
83487;SDS011;73424;49.994;8.184;2024-02-26T11:04:03;7.32;;;5.25;;
83487;SDS011;73424;49.994;8.184;2024-02-26T11:06:31;8.00;;;5.40;;
83487;SDS011;73424;49.994;8.184;2024-02-26T11:08:59;8.55;;;6.18;;
83487;SDS011;73424;49.994;8.184;2024-02-26T11:11:26;8.48;;;5.53;;
83487;SDS011;73424;49.994;8.184;2024-02-26T11:13:53;6.85;;;5.65;;
83487;SDS011;73424;49.994;8.184;2024-02-26T11:16:22;9.80;;;7.53;;
83487;SDS011;73424;49.994;8.184;2024-02-26T11:18:48;8.65;;;6.05;;
83487;SDS011;73424;49.994;8.184;2024-02-26T11:21:17;7.00;;;5.28;;
83487;SDS011;73424;49.994;8.184;2024-02-26T11:26:11;9.77;;;6.30;;
83487;SDS011;73424;49.994;8.184;2024-02-26T11:28:38;9.23;;;7.30;;
83487;SDS011;73424;49.994;8.184;2024-02-26T11:31:04;9.90;;;6.15;;
83487;SDS011;73424;49.994;8.184;2024-02-26T11:33:32;9.18;;;6.72;;
83487;SDS011;73424;49.994;8.184;2024-02-26T11:35:58;10.57;;;7.00;;
83487;SDS011;73424;49.994;8.184;2024-02-26T11:38:24;10.75;;;6.43;;
83487;SDS011;73424;49.994;8.184;2024-02-26T11:40:51;10.40;;;7.80;;
83487;SDS011;73424;49.994;8.184;2024-02-26T11:43:18;7.22;;;6.45;;
83487;SDS011;73424;49.994;8.184;2024-02-26T11:45:48;8.75;;;6.20;;
83487;SDS011;73424;49.994;8.184;2024-02-26T11:48:21;10.45;;;6.40;;
83487;SDS011;73424;49.994;8.184;2024-02-26T11:50:49;8.45;;;5.60;;
83487;SDS011;73424;49.994;8.184;2024-02-26T11:55:44;8.45;;;5.82;;
83487;SDS011;73424;49.994;8.184;2024-02-26T11:58:09;7.03;;;5.65;;
83487;SDS011;73424;49.994;8.184;2024-02-26T12:00:35;7.43;;;5.80;;
83487;SDS011;73424;49.994;8.184;2024-02-26T12:03:00;8.55;;;5.80;;
83487;SDS011;73424;49.994;8.184;2024-02-26T12:05:32;7.88;;;6.05;;
83487;SDS011;73424;49.994;8.184;2024-02-26T12:08:08;8.65;;;5.32;;
83487;SDS011;73424;49.994;8.184;2024-02-26T12:10:35;7.57;;;6.35;;
83487;SDS011;73424;49.994;8.184;2024-02-26T12:13:10;7.78;;;5.30;;
83487;SDS011;73424;49.994;8.184;2024-02-26T12:18:31;7.15;;;5.32;;
83487;SDS011;73424;49.994;8.184;2024-02-26T12:21:00;8.15;;;5.13;;
83487;SDS011;73424;49.994;8.184;2024-02-26T12:25:53;6.30;;;5.35;;
83487;SDS011;73424;49.994;8.184;2024-02-26T12:28:18;7.50;;;5.15;;
83487;SDS011;73424;49.994;8.184;2024-02-26T12:30:44;5.38;;;3.53;;
83487;SDS011;73424;49.994;8.184;2024-02-26T12:33:09;7.53;;;5.22;;
83487;SDS011;73424;49.994;8.184;2024-02-26T12:35:35;6.00;;;5.05;;
83487;SDS011;73424;49.994;8.184;2024-02-26T12:38:01;6.35;;;4.85;;
83487;SDS011;73424;49.994;8.184;2024-02-26T12:40:28;7.05;;;5.05;;
83487;SDS011;73424;49.994;8.184;2024-02-26T12:42:54;6.57;;;4.70;;
83487;SDS011;73424;49.994;8.184;2024-02-26T12:45:22;7.53;;;4.93;;
83487;SDS011;73424;49.994;8.184;2024-02-26T12:47:48;7.22;;;5.22;;
83487;SDS011;73424;49.994;8.184;2024-02-26T12:50:16;6.40;;;5.40;;
83487;SDS011;73424;49.994;8.184;2024-02-26T12:52:46;7.03;;;4.88;;
83487;SDS011;73424;49.994;8.184;2024-02-26T12:55:16;5.95;;;4.60;;
83487;SDS011;73424;49.994;8.184;2024-02-26T12:57:44;6.25;;;4.80;;
83487;SDS011;73424;49.994;8.184;2024-02-26T13:00:11;6.35;;;3.95;;
83487;SDS011;73424;49.994;8.184;2024-02-26T13:02:39;9.20;;;4.40;;
83487;SDS011;73424;49.994;8.184;2024-02-26T13:05:08;5.97;;;5.10;;
83487;SDS011;73424;49.994;8.184;2024-02-26T13:07:34;5.45;;;4.32;;
83487;SDS011;73424;49.994;8.184;2024-02-26T13:10:05;5.38;;;3.92;;
83487;SDS011;73424;49.994;8.184;2024-02-26T13:12:30;7.40;;;4.45;;
83487;SDS011;73424;49.994;8.184;2024-02-26T13:15:01;8.02;;;4.75;;
83487;SDS011;73424;49.994;8.184;2024-02-26T13:17:27;5.72;;;4.45;;
83487;SDS011;73424;49.994;8.184;2024-02-26T13:19:56;6.15;;;4.35;;
83487;SDS011;73424;49.994;8.184;2024-02-26T13:22:22;7.47;;;4.53;;
83487;SDS011;73424;49.994;8.184;2024-02-26T13:24:58;5.97;;;4.47;;
83487;SDS011;73424;49.994;8.184;2024-02-26T13:27:24;6.22;;;4.15;;
83487;SDS011;73424;49.994;8.184;2024-02-26T13:30:04;5.55;;;4.97;;
83487;SDS011;73424;49.994;8.184;2024-02-26T13:32:37;5.80;;;4.30;;
83487;SDS011;73424;49.994;8.184;2024-02-26T13:35:07;9.43;;;5.63;;
83487;SDS011;73424;49.994;8.184;2024-02-26T13:37:35;6.10;;;4.40;;
83487;SDS011;73424;49.994;8.184;2024-02-26T13:40:01;7.43;;;5.32;;
83487;SDS011;73424;49.994;8.184;2024-02-26T13:42:30;7.20;;;4.10;;
83487;SDS011;73424;49.994;8.184;2024-02-26T13:44:56;5.45;;;4.05;;
83487;SDS011;73424;49.994;8.184;2024-02-26T13:47:21;5.80;;;4.70;;
83487;SDS011;73424;49.994;8.184;2024-02-26T13:49:47;6.90;;;4.15;;
83487;SDS011;73424;49.994;8.184;2024-02-26T13:52:12;5.00;;;4.07;;
83487;SDS011;73424;49.994;8.184;2024-02-26T13:54:37;5.40;;;4.10;;
83487;SDS011;73424;49.994;8.184;2024-02-26T13:57:05;7.72;;;4.75;;
83487;SDS011;73424;49.994;8.184;2024-02-26T13:59:30;6.63;;;4.95;;
83487;SDS011;73424;49.994;8.184;2024-02-26T14:01:55;7.20;;;6.50;;
83487;SDS011;73424;49.994;8.184;2024-02-26T14:04:21;5.77;;;4.83;;
83487;SDS011;73424;49.994;8.184;2024-02-26T14:06:46;6.50;;;4.63;;
83487;SDS011;73424;49.994;8.184;2024-02-26T14:09:11;5.78;;;4.57;;
83487;SDS011;73424;49.994;8.184;2024-02-26T14:11:43;5.55;;;4.93;;
83487;SDS011;73424;49.994;8.184;2024-02-26T14:14:09;5.32;;;3.92;;
83487;SDS011;73424;49.994;8.184;2024-02-26T14:16:34;7.77;;;4.30;;
83487;SDS011;73424;49.994;8.184;2024-02-26T14:18:59;5.90;;;3.90;;
83487;SDS011;73424;49.994;8.184;2024-02-26T14:21:25;5.72;;;4.30;;
83487;SDS011;73424;49.994;8.184;2024-02-26T14:23:50;7.00;;;4.25;;
83487;SDS011;73424;49.994;8.184;2024-02-26T14:26:15;6.60;;;4.43;;
83487;SDS011;73424;49.994;8.184;2024-02-26T14:28:41;7.47;;;5.80;;
83487;SDS011;73424;49.994;8.184;2024-02-26T14:31:06;5.93;;;4.57;;
83487;SDS011;73424;49.994;8.184;2024-02-26T14:33:36;7.53;;;4.88;;
83487;SDS011;73424;49.994;8.184;2024-02-26T14:36:02;6.22;;;5.30;;
83487;SDS011;73424;49.994;8.184;2024-02-26T14:38:28;6.05;;;3.97;;
83487;SDS011;73424;49.994;8.184;2024-02-26T14:40:53;5.53;;;4.03;;
83487;SDS011;73424;49.994;8.184;2024-02-26T14:43:18;5.07;;;4.47;;
83487;SDS011;73424;49.994;8.184;2024-02-26T14:45:43;5.30;;;4.10;;
83487;SDS011;73424;49.994;8.184;2024-02-26T14:48:09;5.07;;;4.25;;
83487;SDS011;73424;49.994;8.184;2024-02-26T14:50:36;5.40;;;4.65;;
83487;SDS011;73424;49.994;8.184;2024-02-26T14:53:01;5.30;;;4.28;;
83487;SDS011;73424;49.994;8.184;2024-02-26T14:55:27;5.47;;;3.80;;